Time;durP1;ratioP1;P1;durP2;ratioP2;P2;SDS_P1;SDS_P2;PMS_P1;PMS_P2;Temp;Humidity;BMP_temperature;BMP_pressure;BME280_temperature;BME280_humidity;BME280_pressure;Samples;Min_cycle;Max_cycle;Signal;HPM_P1;HPM_P2
2023/01/25 00:00:17;;;;;;;28.15;12.75;;;;;;;;;;6303085;28;20052;-63
2023/01/25 00:03:38;;;;;;;34.58;13.90;;;;;;;;;;6313742;28;20055;-56
2023/01/25 00:06:38;;;;;;;36.05;14.82;;;;;;;;;;6290870;28;20044;-54
2023/01/25 00:09:39;;;;;;;31.50;13.57;;;;;;;;;;6307518;28;20684;-54
2023/01/25 00:12:40;;;;;;;32.45;13.73;;;;;;;;;;6317488;28;20056;-54
2023/01/25 00:15:40;;;;;;;29.02;12.10;;;;;;;;;;6314413;28;20063;-54
2023/01/25 00:18:41;;;;;;;28.17;12.10;;;;;;;;;;6300577;28;20419;-54
2023/01/25 00:21:42;;;;;;;34.85;13.45;;;;;;;;;;6304192;28;20048;-57
2023/01/25 00:24:42;;;;;;;31.67;12.73;;;;;;;;;;6308363;28;20048;-66
2023/01/25 00:27:43;;;;;;;31.35;13.80;;;;;;;;;;6309917;28;20048;-54
2023/01/25 00:30:43;;;;;;;29.90;15.38;;;;;;;;;;6298751;28;20106;-57
2023/01/25 00:33:59;;;;;;;29.80;14.18;;;;;;;;;;6315821;28;20051;-56
2023/01/25 00:37:05;;;;;;;27.70;12.23;;;;;;;;;;6315884;28;20486;-62
2023/01/25 00:40:09;;;;;;;21.67;10.07;;;;;;;;;;6316710;28;20130;-53
2023/01/25 00:43:09;;;;;;;36.50;18.95;;;;;;;;;;6299389;28;20100;-55
2023/01/25 00:46:15;;;;;;;20.80;9.88;;;;;;;;;;6303568;28;20105;-56
2023/01/25 00:49:22;;;;;;;20.98;11.38;;;;;;;;;;6307721;28;20129;-54
2023/01/25 00:52:23;;;;;;;28.23;9.95;;;;;;;;;;6289673;28;20044;-55
2023/01/25 00:55:23;;;;;;;25.45;13.43;;;;;;;;;;6290076;28;20510;-57
2023/01/25 00:58:24;;;;;;;23.30;11.10;;;;;;;;;;6300740;28;20138;-58
2023/01/25 01:01:25;;;;;;;23.10;9.00;;;;;;;;;;6301347;28;20056;-63
2023/01/25 01:04:26;;;;;;;24.08;13.25;;;;;;;;;;6312089;28;20591;-56
2023/01/25 01:07:26;;;;;;;23.50;11.82;;;;;;;;;;6314316;28;20460;-57
2023/01/25 01:10:27;;;;;;;23.45;13.07;;;;;;;;;;6312587;28;20036;-54
2023/01/25 01:13:28;;;;;;;24.05;11.40;;;;;;;;;;6305548;28;20052;-56
2023/01/25 01:16:29;;;;;;;20.65;10.02;;;;;;;;;;6313971;28;20402;-59
2023/01/25 01:19:30;;;;;;;22.52;11.20;;;;;;;;;;6304657;28;20123;-59
2023/01/25 01:22:31;;;;;;;19.50;8.65;;;;;;;;;;6310362;28;20437;-56
2023/01/25 01:25:31;;;;;;;18.02;7.72;;;;;;;;;;6313148;28;20055;-65
2023/01/25 01:28:34;;;;;;;14.20;7.38;;;;;;;;;;6316499;28;20090;-63
2023/01/25 01:31:35;;;;;;;15.18;7.40;;;;;;;;;;6309973;28;20048;-57
2023/01/25 01:34:35;;;;;;;19.55;9.82;;;;;;;;;;6313886;28;20497;-54
2023/01/25 01:37:36;;;;;;;18.95;8.88;;;;;;;;;;6294785;28;20048;-63
2023/01/25 01:40:37;;;;;;;18.50;8.45;;;;;;;;;;6306776;28;20087;-60
2023/01/25 01:43:37;;;;;;;18.08;9.27;;;;;;;;;;6305464;28;20101;-61
2023/01/25 01:46:38;;;;;;;19.77;8.80;;;;;;;;;;6301508;28;20072;-53
2023/01/25 01:49:39;;;;;;;24.52;9.63;;;;;;;;;;6305503;28;20059;-65
2023/01/25 01:52:40;;;;;;;21.92;10.13;;;;;;;;;;6313971;28;20052;-55
2023/01/25 01:55:40;;;;;;;27.17;11.57;;;;;;;;;;6304372;28;20052;-58
2023/01/25 01:58:43;;;;;;;27.08;11.48;;;;;;;;;;6311355;28;20543;-57
2023/01/25 02:01:44;;;;;;;21.02;8.85;;;;;;;;;;6307045;28;20097;-56
2023/01/25 02:04:47;;;;;;;19.25;8.05;;;;;;;;;;6306395;28;20402;-64
2023/01/25 02:07:51;;;;;;;22.92;11.32;;;;;;;;;;6312290;28;20130;-58
2023/01/25 02:10:51;;;;;;;20.38;9.02;;;;;;;;;;6306622;28;20049;-65
2023/01/25 02:13:54;;;;;;;17.23;7.85;;;;;;;;;;6303269;28;20051;-57
2023/01/25 02:16:55;;;;;;;15.52;7.03;;;;;;;;;;6296268;28;20041;-54
2023/01/25 02:20:07;;;;;;;17.90;7.13;;;;;;;;;;6272192;28;20049;-58
2023/01/25 02:23:35;;;;;;;16.87;7.33;;;;;;;;;;6285595;28;20569;-59
2023/01/25 02:26:36;;;;;;;15.38;7.00;;;;;;;;;;6291550;28;20459;-65
2023/01/25 02:29:37;;;;;;;23.05;11.20;;;;;;;;;;6289972;28;20040;-57
2023/01/25 02:32:37;;;;;;;25.73;11.98;;;;;;;;;;6297307;28;20054;-64
2023/01/25 02:35:45;;;;;;;28.88;14.15;;;;;;;;;;6290727;28;20125;-65
2023/01/25 02:39:00;;;;;;;27.38;12.00;;;;;;;;;;6289151;28;20048;-55
2023/01/25 02:42:00;;;;;;;22.35;10.38;;;;;;;;;;6293197;28;20044;-54
2023/01/25 02:45:02;;;;;;;23.52;9.77;;;;;;;;;;6295221;28;20140;-53
2023/01/25 02:48:03;;;;;;;25.13;11.70;;;;;;;;;;6294427;28;20052;-55
2023/01/25 02:51:06;;;;;;;27.10;13.32;;;;;;;;;;6290202;28;20301;-55
2023/01/25 02:54:08;;;;;;;31.95;15.65;;;;;;;;;;6295512;28;20444;-65
2023/01/25 02:57:09;;;;;;;21.80;9.75;;;;;;;;;;6301493;28;20120;-54
2023/01/25 03:00:10;;;;;;;22.90;11.73;;;;;;;;;;6289340;28;20115;-52
2023/01/25 03:03:10;;;;;;;24.80;12.52;;;;;;;;;;6295491;28;20044;-54
2023/01/25 03:06:12;;;;;;;24.52;12.88;;;;;;;;;;6313013;28;20398;-55
2023/01/25 03:09:12;;;;;;;23.75;11.55;;;;;;;;;;6309154;28;20655;-53
2023/01/25 03:12:13;;;;;;;24.00;12.48;;;;;;;;;;6303036;28;20048;-54
2023/01/25 03:15:13;;;;;;;26.60;11.82;;;;;;;;;;6307253;28;20049;-64
2023/01/25 03:18:14;;;;;;;30.02;14.77;;;;;;;;;;6302888;28;20445;-64
2023/01/25 03:21:17;;;;;;;26.08;13.98;;;;;;;;;;6295233;28;20036;-60
2023/01/25 03:24:18;;;;;;;23.42;11.90;;;;;;;;;;6301807;28;20067;-56
2023/01/25 03:27:19;;;;;;;28.13;12.23;;;;;;;;;;6297145;28;20044;-52
2023/01/25 03:30:19;;;;;;;30.30;14.82;;;;;;;;;;6289347;28;20419;-64
2023/01/25 03:33:20;;;;;;;38.30;16.98;;;;;;;;;;6286290;28;20045;-51
2023/01/25 03:36:21;;;;;;;32.17;15.20;;;;;;;;;;6282691;28;20047;-52
2023/01/25 03:39:21;;;;;;;29.60;15.40;;;;;;;;;;6303148;28;20055;-54
2023/01/25 03:42:22;;;;;;;31.75;13.70;;;;;;;;;;6294231;28;20040;-55
2023/01/25 03:45:23;;;;;;;27.77;12.85;;;;;;;;;;6308178;28;20439;-54
2023/01/25 03:48:24;;;;;;;24.17;10.32;;;;;;;;;;6293855;28;20391;-55
2023/01/25 03:51:25;;;;;;;27.55;13.85;;;;;;;;;;6299420;28;20041;-53
2023/01/25 03:54:25;;;;;;;24.67;12.57;;;;;;;;;;6296272;28;20044;-53
2023/01/25 03:57:26;;;;;;;24.77;13.13;;;;;;;;;;6299071;28;20071;-53
2023/01/25 04:00:26;;;;;;;24.40;12.45;;;;;;;;;;6294638;28;20119;-55
2023/01/25 04:03:28;;;;;;;29.67;16.33;;;;;;;;;;6295954;28;20707;-58
2023/01/25 04:06:28;;;;;;;29.42;15.55;;;;;;;;;;6295395;28;20131;-56
2023/01/25 04:09:29;;;;;;;30.30;16.50;;;;;;;;;;6306396;28;20058;-53
2023/01/25 04:12:30;;;;;;;33.15;17.63;;;;;;;;;;6316136;28;20048;-52
2023/01/25 04:15:30;;;;;;;34.25;15.85;;;;;;;;;;6289621;28;20403;-59
2023/01/25 04:18:31;;;;;;;27.80;13.20;;;;;;;;;;6292906;28;20622;-55
2023/01/25 04:21:32;;;;;;;22.98;11.23;;;;;;;;;;6292909;28;20441;-53
2023/01/25 04:24:32;;;;;;;18.33;8.10;;;;;;;;;;6298491;28;20056;-53
2023/01/25 04:27:33;;;;;;;23.95;11.32;;;;;;;;;;6291043;28;20566;-64
2023/01/25 04:30:34;;;;;;;28.25;12.77;;;;;;;;;;6295245;28;20048;-54
2023/01/25 04:33:34;;;;;;;31.13;12.55;;;;;;;;;;6317226;28;20410;-55
2023/01/25 04:36:35;;;;;;;26.23;11.55;;;;;;;;;;6299450;28;20444;-55
2023/01/25 04:39:35;;;;;;;26.98;11.60;;;;;;;;;;6292894;28;20052;-52
2023/01/25 04:42:36;;;;;;;21.55;9.90;;;;;;;;;;6311893;28;20105;-52
2023/01/25 04:45:36;;;;;;;21.90;10.10;;;;;;;;;;6306197;28;20051;-52
2023/01/25 04:48:37;;;;;;;27.60;13.88;;;;;;;;;;6292273;28;20507;-54
2023/01/25 04:51:38;;;;;;;24.83;12.35;;;;;;;;;;6295389;28;20387;-62
2023/01/25 04:54:38;;;;;;;28.40;13.15;;;;;;;;;;6290527;28;20076;-56
2023/01/25 04:57:39;;;;;;;30.60;13.60;;;;;;;;;;6290889;28;20480;-57
2023/01/25 05:00:39;;;;;;;30.05;15.65;;;;;;;;;;6312341;28;20055;-53
2023/01/25 05:03:40;;;;;;;30.15;16.55;;;;;;;;;;6304996;28;20052;-56
2023/01/25 05:06:40;;;;;;;38.55;17.27;;;;;;;;;;6292904;28;20055;-56
2023/01/25 05:09:41;;;;;;;37.53;15.35;;;;;;;;;;6295367;28;20620;-52
2023/01/25 05:12:42;;;;;;;25.60;11.98;;;;;;;;;;6316514;28;20052;-55
2023/01/25 05:15:43;;;;;;;25.00;12.48;;;;;;;;;;6295726;28;20052;-54
2023/01/25 05:18:43;;;;;;;25.02;11.95;;;;;;;;;;6291110;28;20094;-56
2023/01/25 05:21:59;;;;;;;31.02;13.95;;;;;;;;;;6293896;28;20040;-54
2023/01/25 05:25:01;;;;;;;29.42;13.90;;;;;;;;;;6291372;28;20540;-55
2023/01/25 05:28:05;;;;;;;;;;;;;;;;;;6301835;28;20483;-56
2023/01/25 05:31:06;;;;;;;25.15;12.30;;;;;;;;;;6308862;28;19924;-53
2023/01/25 05:34:08;;;;;;;29.60;17.00;;;;;;;;;;6299018;28;20044;-55
2023/01/25 05:37:11;;;;;;;31.73;18.40;;;;;;;;;;6292614;28;20113;-54
2023/01/25 05:40:11;;;;;;;36.67;18.77;;;;;;;;;;6289874;28;20868;-54
2023/01/25 05:43:12;;;;;;;34.45;18.90;;;;;;;;;;6288605;28;20068;-56
2023/01/25 05:46:13;;;;;;;39.88;20.08;;;;;;;;;;6291467;28;20052;-52
2023/01/25 05:49:14;;;;;;;42.72;19.80;;;;;;;;;;6310552;28;20059;-54
2023/01/25 05:52:16;;;;;;;35.05;18.20;;;;;;;;;;6301842;28;20093;-55
2023/01/25 05:55:16;;;;;;;34.47;16.58;;;;;;;;;;6313705;28;20505;-60
2023/01/25 05:58:17;;;;;;;32.47;17.48;;;;;;;;;;6304461;28;20045;-54
2023/01/25 06:01:18;;;;;;;30.00;14.98;;;;;;;;;;6308677;28;20048;-55
2023/01/25 06:04:18;;;;;;;27.83;15.45;;;;;;;;;;6314574;28;20054;-55
2023/01/25 06:07:19;;;;;;;40.85;18.60;;;;;;;;;;6317414;28;20039;-57
2023/01/25 06:10:19;;;;;;;34.40;18.48;;;;;;;;;;6318759;28;20398;-57
2023/01/25 06:13:23;;;;;;;52.70;23.00;;;;;;;;;;6317453;28;20880;-58
2023/01/25 06:16:23;;;;;;;76.10;31.40;;;;;;;;;;6316629;28;20091;-58
2023/01/25 06:19:24;;;;;;;56.83;26.20;;;;;;;;;;6320337;28;20478;-62
2023/01/25 06:22:25;;;;;;;39.47;21.05;;;;;;;;;;6317797;28;20409;-57
2023/01/25 06:25:25;;;;;;;32.92;16.83;;;;;;;;;;6320915;28;20943;-57
2023/01/25 06:28:29;;;;;;;31.05;15.77;;;;;;;;;;6317795;28;20044;-59
2023/01/25 06:31:30;;;;;;;42.63;20.60;;;;;;;;;;6317531;28;20043;-58
2023/01/25 06:34:30;;;;;;;35.30;17.88;;;;;;;;;;6318401;28;20546;-56
2023/01/25 06:37:31;;;;;;;76.95;33.13;;;;;;;;;;6315980;28;20116;-56
2023/01/25 06:40:31;;;;;;;72.60;31.65;;;;;;;;;;6319810;28;20036;-57
2023/01/25 06:43:33;;;;;;;69.88;29.17;;;;;;;;;;6317436;28;20040;-57
2023/01/25 06:46:34;;;;;;;74.17;30.30;;;;;;;;;;6317629;28;20052;-57
2023/01/25 06:49:34;;;;;;;60.88;25.60;;;;;;;;;;6320469;28;20727;-58
2023/01/25 06:52:35;;;;;;;50.55;21.52;;;;;;;;;;6308837;28;20055;-58
2023/01/25 06:55:36;;;;;;;71.28;27.20;;;;;;;;;;6290152;28;20075;-58
2023/01/25 06:58:37;;;;;;;190.48;55.90;;;;;;;;;;6291130;28;20040;-57
2023/01/25 07:01:38;;;;;;;215.68;59.88;;;;;;;;;;6292258;28;20083;-59
2023/01/25 07:04:38;;;;;;;82.05;28.33;;;;;;;;;;6294161;28;20060;-57
2023/01/25 07:07:39;;;;;;;92.70;34.22;;;;;;;;;;6291825;28;20072;-57
2023/01/25 07:10:39;;;;;;;87.78;29.55;;;;;;;;;;6292800;28;20052;-57
2023/01/25 07:13:42;;;;;;;152.52;43.78;;;;;;;;;;6293248;28;20053;-58
2023/01/25 07:16:42;;;;;;;105.68;33.63;;;;;;;;;;6290851;28;20052;-56
2023/01/25 07:19:43;;;;;;;42.65;19.50;;;;;;;;;;6292818;28;20115;-60
2023/01/25 07:22:43;;;;;;;36.00;18.02;;;;;;;;;;6291484;28;20056;-58
2023/01/25 07:25:45;;;;;;;42.10;18.65;;;;;;;;;;6291277;28;20055;-60
2023/01/25 07:28:46;;;;;;;37.08;18.58;;;;;;;;;;6289024;28;20036;-53
2023/01/25 07:31:47;;;;;;;38.67;19.35;;;;;;;;;;6291440;28;20049;-56
2023/01/25 07:34:48;;;;;;;49.60;22.23;;;;;;;;;;6294334;28;20533;-57
2023/01/25 07:37:49;;;;;;;61.95;27.73;;;;;;;;;;6287108;28;20511;-57
2023/01/25 07:40:52;;;;;;;56.53;22.75;;;;;;;;;;6291238;28;20045;-58
2023/01/25 07:43:53;;;;;;;48.88;20.85;;;;;;;;;;6292755;28;20139;-58
2023/01/25 07:46:54;;;;;;;56.17;21.83;;;;;;;;;;6288205;28;20059;-60
2023/01/25 07:49:54;;;;;;;76.78;35.38;;;;;;;;;;6293230;28;20048;-54
2023/01/25 07:52:57;;;;;;;90.78;41.83;;;;;;;;;;6290530;28;20468;-58
2023/01/25 07:55:58;;;;;;;65.55;31.13;;;;;;;;;;6314694;28;20098;-61
2023/01/25 07:59:01;;;;;;;69.88;31.55;;;;;;;;;;6317819;28;20043;-59
2023/01/25 08:02:02;;;;;;;71.22;34.75;;;;;;;;;;6292949;28;20444;-60
2023/01/25 08:05:05;;;;;;;59.33;29.05;;;;;;;;;;6290922;28;20041;-58
2023/01/25 08:08:05;;;;;;;66.63;32.20;;;;;;;;;;6303181;28;20068;-58
2023/01/25 08:11:19;;;;;;;70.20;32.20;;;;;;;;;;6293832;28;20439;-56
2023/01/25 08:14:19;;;;;;;60.85;28.60;;;;;;;;;;6309443;28;20135;-58
2023/01/25 08:17:20;;;;;;;51.75;23.83;;;;;;;;;;6308738;28;20084;-62
2023/01/25 08:20:21;;;;;;;39.88;19.33;;;;;;;;;;6313599;28;20403;-58
2023/01/25 08:23:22;;;;;;;43.40;19.35;;;;;;;;;;6303442;28;20051;-56
2023/01/25 08:26:23;;;;;;;54.88;26.95;;;;;;;;;;6291714;28;20613;-60
2023/01/25 08:29:23;;;;;;;49.50;23.75;;;;;;;;;;6293826;28;20032;-58
2023/01/25 08:32:25;;;;;;;50.83;22.17;;;;;;;;;;6292552;28;20448;-58
2023/01/25 08:35:25;;;;;;;45.97;21.00;;;;;;;;;;6297975;28;20045;-59
2023/01/25 08:38:28;;;;;;;45.25;20.83;;;;;;;;;;6291949;28;20402;-64
2023/01/25 08:41:29;;;;;;;54.13;27.05;;;;;;;;;;6291592;28;21130;-56
2023/01/25 08:44:30;;;;;;;55.10;22.02;;;;;;;;;;6293765;28;20585;-57
2023/01/25 08:47:32;;;;;;;41.80;17.98;;;;;;;;;;6299996;28;20076;-58
2023/01/25 08:50:33;;;;;;;;;;;;;;;;;;6292822;28;20074;-57
2023/01/25 08:53:34;;;;;;;53.92;24.42;;;;;;;;;;6291164;28;19929;-57
2023/01/25 08:56:41;;;;;;;44.28;20.50;;;;;;;;;;6289750;28;20121;-58
2023/01/25 08:59:43;;;;;;;45.53;21.27;;;;;;;;;;6290706;28;20073;-56
2023/01/25 09:02:44;;;;;;;42.65;19.88;;;;;;;;;;6291636;28;20070;-58
2023/01/25 09:05:44;;;;;;;52.05;21.45;;;;;;;;;;6291989;28;20040;-58
2023/01/25 09:08:45;;;;;;;52.95;22.13;;;;;;;;;;6292849;28;20047;-57
2023/01/25 09:11:46;;;;;;;54.00;23.02;;;;;;;;;;6275133;28;20503;-53
2023/01/25 09:14:47;;;;;;;59.35;25.00;;;;;;;;;;6297608;28;20052;-57
2023/01/25 09:17:55;;;;;;;61.47;24.08;;;;;;;;;;6290363;28;20044;-58
2023/01/25 09:20:56;;;;;;;61.17;26.65;;;;;;;;;;6273661;28;20556;-62
2023/01/25 09:23:57;;;;;;;63.33;26.50;;;;;;;;;;6293660;28;20032;-59
2023/01/25 09:26:58;;;;;;;57.70;23.53;;;;;;;;;;6290572;28;20058;-58
2023/01/25 09:29:58;;;;;;;51.50;21.77;;;;;;;;;;6292356;28;20045;-59
2023/01/25 09:32:59;;;;;;;45.10;21.50;;;;;;;;;;6290728;28;20743;-60
2023/01/25 09:36:00;;;;;;;50.58;20.92;;;;;;;;;;6306812;28;20131;-58
2023/01/25 09:39:02;;;;;;;55.72;24.17;;;;;;;;;;6305495;28;20382;-60
2023/01/25 09:42:31;;;;;;;71.35;36.83;;;;;;;;;;6292664;28;20045;-57
2023/01/25 09:45:34;;;;;;;60.42;23.50;;;;;;;;;;6293458;28;20484;-59
2023/01/25 09:48:54;;;;;;;60.45;25.38;;;;;;;;;;6293632;28;20049;-59
2023/01/25 09:51:58;;;;;;;82.22;31.65;;;;;;;;;;6290614;28;20456;-59
2023/01/25 09:54:59;;;;;;;90.72;30.92;;;;;;;;;;6289882;28;20802;-58
2023/01/25 09:58:02;;;;;;;65.72;25.38;;;;;;;;;;6289214;28;20131;-59
2023/01/25 10:01:33;;;;;;;65.28;27.73;;;;;;;;;;6291088;28;20040;-59
2023/01/25 10:04:39;;;;;;;62.72;23.88;;;;;;;;;;6283057;28;20054;-58
2023/01/25 10:07:47;;;;;;;83.85;30.13;;;;;;;;;;6297581;28;20133;-57
2023/01/25 10:10:51;;;;;;;72.53;27.10;;;;;;;;;;6289041;28;20056;-62
2023/01/25 10:13:55;;;;;;;84.18;32.83;;;;;;;;;;6291085;28;20101;-59
2023/01/25 10:17:09;;;;;;;128.10;44.22;;;;;;;;;;6293222;28;20055;-59
2023/01/25 10:20:42;;;;;;;59.30;23.88;;;;;;;;;;6290339;28;20106;-60
2023/01/25 10:24:03;;;;;;;;;;;;;;;;;;6287430;28;20047;-58
2023/01/25 10:27:31;;;;;;;46.00;18.10;;;;;;;;;;6271493;28;19927;-60
2023/01/25 10:30:51;;;;;;;36.40;16.38;;;;;;;;;;6303307;28;20567;-60
2023/01/25 10:33:54;;;;;;;48.28;21.30;;;;;;;;;;6291850;28;20036;-59
2023/01/25 10:36:59;;;;;;;50.25;22.17;;;;;;;;;;6284968;28;20044;-59
2023/01/25 10:40:13;;;;;;;47.67;19.95;;;;;;;;;;6291241;28;20079;-58
2023/01/25 10:43:21;;;;;;;42.08;16.55;;;;;;;;;;6304555;28;20127;-60
2023/01/25 10:46:24;;;;;;;44.17;17.90;;;;;;;;;;6313229;28;20136;-60
2023/01/25 10:49:53;;;;;;;42.60;17.52;;;;;;;;;;6292885;28;20051;-58
2023/01/25 10:52:57;;;;;;;37.70;16.63;;;;;;;;;;6291801;28;20041;-58
2023/01/25 10:56:07;;;;;;;34.15;14.57;;;;;;;;;;6304772;28;20063;-59
2023/01/25 10:59:21;;;;;;;33.88;15.27;;;;;;;;;;6290003;28;20639;-60
2023/01/25 11:02:40;;;;;;;38.45;16.70;;;;;;;;;;6295250;28;20054;-58
2023/01/25 11:05:42;;;;;;;42.65;18.55;;;;;;;;;;6288042;28;20041;-59
2023/01/25 11:08:42;;;;;;;39.05;17.52;;;;;;;;;;6293714;28;20862;-58
2023/01/25 11:12:12;;;;;;;33.20;14.30;;;;;;;;;;6287694;28;20036;-58
2023/01/25 11:15:24;;;;;;;30.65;13.27;;;;;;;;;;6291675;28;20050;-59
2023/01/25 11:18:32;;;;;;;35.63;14.60;;;;;;;;;;6295790;28;20054;-59
2023/01/25 11:21:33;;;;;;;31.13;13.02;;;;;;;;;;6296967;28;20060;-58
2023/01/25 11:24:35;;;;;;;29.83;12.82;;;;;;;;;;6293075;28;20065;-56
2023/01/25 11:27:35;;;;;;;28.60;12.50;;;;;;;;;;6294560;28;20459;-57
2023/01/25 11:30:36;;;;;;;30.50;13.57;;;;;;;;;;6307533;28;20840;-57
2023/01/25 11:33:37;;;;;;;29.17;12.75;;;;;;;;;;6295613;28;20045;-57
2023/01/25 11:37:00;;;;;;;27.48;11.05;;;;;;;;;;6295250;28;20049;-57
2023/01/25 11:40:22;;;;;;;26.33;10.68;;;;;;;;;;6294337;28;20048;-59
2023/01/25 11:43:28;;;;;;;22.93;10.03;;;;;;;;;;6296720;28;20486;-56
2023/01/25 11:46:42;;;;;;;32.13;14.43;;;;;;;;;;6295996;28;20044;-57
2023/01/25 11:50:06;;;;;;;34.00;17.23;;;;;;;;;;6294220;28;20072;-57
2023/01/25 11:53:43;;;;;;;35.15;15.27;;;;;;;;;;6296949;28;20513;-56
2023/01/25 11:57:20;;;;;;;39.55;15.82;;;;;;;;;;6292420;28;20050;-53
2023/01/25 12:00:35;;;;;;;34.35;14.63;;;;;;;;;;6307317;28;20093;-62
2023/01/25 12:03:55;;;;;;;38.10;14.80;;;;;;;;;;6305782;28;20128;-57
2023/01/25 12:07:02;;;;;;;33.63;15.52;;;;;;;;;;6309704;28;20040;-57
2023/01/25 12:10:19;;;;;;;34.85;14.98;;;;;;;;;;6307089;28;20043;-63
2023/01/25 12:13:35;;;;;;;34.40;13.55;;;;;;;;;;6317090;28;20432;-61
2023/01/25 12:17:01;;;;;;;30.48;14.00;;;;;;;;;;6309639;28;20044;-63
2023/01/25 12:20:30;;;;;;;37.30;15.35;;;;;;;;;;6305157;28;20048;-62
2023/01/25 12:24:33;;;;;;;35.30;15.80;;;;;;;;;;6308840;28;20076;-57
2023/01/25 12:27:41;;;;;;;30.30;13.57;;;;;;;;;;6236812;28;20091;-63
2023/01/25 12:31:16;;;;;;;29.10;15.10;;;;;;;;;;6238494;28;20567;-59
2023/01/25 12:34:35;;;;;;;34.65;16.83;;;;;;;;;;6260466;28;20059;-63
2023/01/25 12:37:40;;;;;;;34.10;14.52;;;;;;;;;;6267544;28;20704;-57
2023/01/25 12:40:53;;;;;;;40.17;18.15;;;;;;;;;;6269206;28;20064;-58
2023/01/25 12:43:59;;;;;;;36.97;18.00;;;;;;;;;;6267492;28;20139;-57
2023/01/25 12:47:12;;;;;;;32.38;14.43;;;;;;;;;;6272048;28;20660;-57
2023/01/25 12:50:21;;;;;;;33.22;14.00;;;;;;;;;;6270003;28;20074;-57
2023/01/25 12:53:48;;;;;;;31.55;14.25;;;;;;;;;;6268905;28;20048;-55
2023/01/25 12:57:02;;;;;;;35.90;16.73;;;;;;;;;;6270342;28;20049;-57
2023/01/25 13:00:28;;;;;;;41.70;19.90;;;;;;;;;;6267183;28;20045;-59
2023/01/25 13:03:58;;;;;;;38.22;17.27;;;;;;;;;;6272367;28;20132;-56
2023/01/25 13:07:11;;;;;;;32.08;14.52;;;;;;;;;;6267842;28;20147;-57
2023/01/25 13:10:40;;;;;;;36.55;16.80;;;;;;;;;;6275476;28;20061;-59
2023/01/25 13:13:41;;;;;;;44.92;28.13;;;;;;;;;;6264557;28;20061;-57
2023/01/25 13:16:48;;;;;;;41.97;20.58;;;;;;;;;;6266165;28;20846;-57
2023/01/25 13:19:50;;;;;;;28.73;15.50;;;;;;;;;;6271629;28;20558;-56
2023/01/25 13:22:53;;;;;;;30.02;15.30;;;;;;;;;;6266239;28;20138;-58
2023/01/25 13:26:20;;;;;;;40.70;21.02;;;;;;;;;;6269527;28;20159;-58
2023/01/25 13:29:41;;;;;;;41.85;18.77;;;;;;;;;;6267511;28;20103;-58
2023/01/25 13:32:48;;;;;;;37.60;16.17;;;;;;;;;;6266795;28;20621;-57
2023/01/25 13:35:48;;;;;;;32.22;15.75;;;;;;;;;;6270426;28;20048;-59
2023/01/25 13:38:49;;;;;;;34.78;16.98;;;;;;;;;;6268317;28;20308;-58
2023/01/25 13:42:08;;;;;;;34.90;17.23;;;;;;;;;;6272305;28;20385;-57
2023/01/25 13:45:19;;;;;;;34.10;15.13;;;;;;;;;;6266855;28;20173;-58
2023/01/25 13:48:23;;;;;;;34.70;17.92;;;;;;;;;;6268195;28;20101;-58
2023/01/25 13:51:28;;;;;;;31.05;12.27;;;;;;;;;;6266813;28;20048;-59
2023/01/25 13:54:29;;;;;;;22.40;11.55;;;;;;;;;;6264012;28;20064;-59
2023/01/25 13:57:30;;;;;;;26.55;12.35;;;;;;;;;;6268564;28;20055;-57
2023/01/25 14:00:31;;;;;;;32.45;16.50;;;;;;;;;;6269488;28;20513;-56
2023/01/25 14:03:44;;;;;;;33.17;16.67;;;;;;;;;;6266275;28;20638;-59
2023/01/25 14:06:45;;;;;;;35.92;16.13;;;;;;;;;;6269769;28;20048;-57
2023/01/25 14:09:47;;;;;;;37.58;18.27;;;;;;;;;;6266620;28;20089;-58
2023/01/25 14:12:49;;;;;;;36.35;17.08;;;;;;;;;;6263628;28;20769;-59
2023/01/25 14:16:00;;;;;;;44.58;19.70;;;;;;;;;;6268806;28;20060;-56
2023/01/25 14:19:23;;;;;;;45.55;19.67;;;;;;;;;;6266941;28;20049;-59
2023/01/25 14:22:24;;;;;;;36.97;16.30;;;;;;;;;;6270833;28;20057;-57
2023/01/25 14:25:25;;;;;;;35.20;16.83;;;;;;;;;;6270062;28;20071;-57
2023/01/25 14:28:28;;;;;;;57.25;22.60;;;;;;;;;;6273743;28;20301;-56
2023/01/25 14:31:35;;;;;;;35.78;14.88;;;;;;;;;;6273480;28;20194;-56
2023/01/25 14:34:35;;;;;;;29.70;12.07;;;;;;;;;;6269361;28;20056;-55
2023/01/25 14:37:41;;;;;;;30.75;14.50;;;;;;;;;;6273657;28;20618;-60
2023/01/25 14:40:42;;;;;;;34.83;17.30;;;;;;;;;;6273234;28;20769;-57
2023/01/25 14:43:46;;;;;;;33.65;14.32;;;;;;;;;;6268241;28;20049;-59
2023/01/25 14:46:47;;;;;;;34.45;15.27;;;;;;;;;;6273006;28;20048;-58
2023/01/25 14:49:47;;;;;;;40.53;19.38;;;;;;;;;;6273110;28;20045;-56
2023/01/25 14:52:48;;;;;;;36.05;15.68;;;;;;;;;;6271716;28;20048;-57
2023/01/25 14:55:49;;;;;;;43.67;21.35;;;;;;;;;;6273662;28;20076;-57
2023/01/25 14:58:50;;;;;;;42.15;17.60;;;;;;;;;;6271292;28;20644;-57
2023/01/25 15:01:53;;;;;;;42.42;19.17;;;;;;;;;;6273132;28;20061;-57
2023/01/25 15:05:04;;;;;;;56.15;25.60;;;;;;;;;;6269286;28;20487;-57
2023/01/25 15:08:07;;;;;;;65.55;27.13;;;;;;;;;;6268894;28;20047;-59
2023/01/25 15:11:36;;;;;;;43.25;20.60;;;;;;;;;;6274552;28;20047;-56
2023/01/25 15:14:47;;;;;;;33.35;16.38;;;;;;;;;;6269698;28;20074;-56
2023/01/25 15:17:49;;;;;;;39.60;16.75;;;;;;;;;;6269668;28;20041;-58
2023/01/25 15:20:51;;;;;;;42.60;18.33;;;;;;;;;;6270900;28;20056;-55
2023/01/25 15:23:53;;;;;;;44.93;21.13;;;;;;;;;;6267637;28;20537;-55
2023/01/25 15:26:54;;;;;;;48.45;22.52;;;;;;;;;;6270256;28;20788;-56
2023/01/25 15:29:55;;;;;;;59.03;26.57;;;;;;;;;;6271238;28;20988;-64
2023/01/25 15:32:55;;;;;;;54.08;25.38;;;;;;;;;;6273808;28;20316;-61
2023/01/25 15:35:56;;;;;;;64.30;27.65;;;;;;;;;;6273571;28;20073;-56
2023/01/25 15:38:57;;;;;;;54.17;26.52;;;;;;;;;;6271469;28;20514;-57
2023/01/25 15:41:57;;;;;;;46.53;21.70;;;;;;;;;;6276087;28;20426;-56
2023/01/25 15:44:58;;;;;;;44.55;22.38;;;;;;;;;;6274693;28;20444;-57
2023/01/25 15:47:58;;;;;;;56.55;23.90;;;;;;;;;;6268554;28;20106;-59
2023/01/25 15:50:59;;;;;;;52.38;24.45;;;;;;;;;;6272296;28;20041;-56
2023/01/25 15:54:00;;;;;;;52.55;25.27;;;;;;;;;;6267055;28;20059;-56
2023/01/25 15:57:01;;;;;;;39.60;18.58;;;;;;;;;;6271545;28;20056;-56
2023/01/25 16:00:03;;;;;;;50.47;21.33;;;;;;;;;;6269770;28;20560;-57
2023/01/25 16:03:04;;;;;;;50.72;23.77;;;;;;;;;;6269219;28;20044;-58
2023/01/25 16:06:27;;;;;;;53.17;25.05;;;;;;;;;;6272230;28;20044;-55
2023/01/25 16:09:29;;;;;;;62.85;27.92;;;;;;;;;;6270876;28;20384;-56
2023/01/25 16:12:33;;;;;;;55.95;24.00;;;;;;;;;;6272493;28;20651;-57
2023/01/25 16:15:34;;;;;;;54.65;25.05;;;;;;;;;;6272616;28;20439;-56
2023/01/25 16:18:35;;;;;;;56.23;24.00;;;;;;;;;;6273533;28;20445;-56
2023/01/25 16:21:35;;;;;;;59.53;26.38;;;;;;;;;;6271425;28;20351;-49
2023/01/25 16:24:36;;;;;;;54.60;23.27;;;;;;;;;;6271043;28;20076;-55
2023/01/25 16:27:37;;;;;;;63.40;26.13;;;;;;;;;;6268880;28;20053;-53
2023/01/25 16:30:37;;;;;;;71.10;28.58;;;;;;;;;;6275261;28;20059;-54
2023/01/25 16:33:38;;;;;;;71.90;30.17;;;;;;;;;;6272383;28;20415;-55
2023/01/25 16:36:39;;;;;;;67.18;27.38;;;;;;;;;;6276296;28;20056;-59
2023/01/25 16:39:40;;;;;;;70.88;27.20;;;;;;;;;;6277569;28;20171;-50
2023/01/25 16:42:40;;;;;;;74.47;30.67;;;;;;;;;;6271817;28;20475;-57
2023/01/25 16:45:41;;;;;;;83.85;34.88;;;;;;;;;;6277831;28;20491;-54
2023/01/25 16:48:42;;;;;;;103.70;36.92;;;;;;;;;;6279027;28;20143;-57
2023/01/25 16:51:47;;;;;;;80.95;30.30;;;;;;;;;;6270911;28;21205;-57
2023/01/25 16:54:48;;;;;;;68.55;26.95;;;;;;;;;;6269612;28;20060;-57
2023/01/25 16:57:49;;;;;;;60.90;24.33;;;;;;;;;;6272018;28;20490;-55
2023/01/25 17:00:50;;;;;;;81.63;29.60;;;;;;;;;;6275860;28;21665;-52
2023/01/25 17:03:50;;;;;;;94.45;32.10;;;;;;;;;;6272232;28;20043;-52
2023/01/25 17:06:51;;;;;;;97.70;30.40;;;;;;;;;;6270543;28;20426;-54
2023/01/25 17:09:52;;;;;;;94.80;31.63;;;;;;;;;;6269667;28;20067;-55
2023/01/25 17:12:53;;;;;;;95.15;29.67;;;;;;;;;;6272831;28;20068;-55
2023/01/25 17:15:55;;;;;;;100.18;33.45;;;;;;;;;;6271945;28;20044;-55
2023/01/25 17:19:03;;;;;;;116.32;40.40;;;;;;;;;;6271794;28;20049;-56
2023/01/25 17:22:03;;;;;;;104.93;35.13;;;;;;;;;;6271467;28;20060;-56
2023/01/25 17:25:04;;;;;;;101.90;35.05;;;;;;;;;;6268255;28;20049;-54
2023/01/25 17:28:05;;;;;;;45.30;18.85;;;;;;;;;;6267609;28;20041;-56
2023/01/25 17:31:21;;;;;;;47.60;20.13;;;;;;;;;;6272079;28;20051;-53
2023/01/25 17:34:22;;;;;;;69.20;27.23;;;;;;;;;;6270590;28;20052;-54
2023/01/25 17:37:22;;;;;;;66.53;27.50;;;;;;;;;;6271947;28;20087;-56
2023/01/25 17:40:23;;;;;;;60.00;25.73;;;;;;;;;;6270182;28;21324;-57
2023/01/25 17:43:24;;;;;;;50.63;21.67;;;;;;;;;;6268241;28;20479;-56
2023/01/25 17:46:28;;;;;;;68.90;26.25;;;;;;;;;;6279915;28;20727;-53
2023/01/25 17:49:29;;;;;;;122.82;39.03;;;;;;;;;;6268702;28;20164;-53
2023/01/25 17:52:30;;;;;;;82.07;30.15;;;;;;;;;;6268640;28;20057;-58
2023/01/25 17:55:34;;;;;;;49.58;21.00;;;;;;;;;;6273453;28;20573;-54